createdAt,value
2023-01-31T00:01:37.442Z,32.50
2023-01-31T00:04:07.223Z,31.85
2023-01-31T00:06:37.562Z,33.38
2023-01-31T00:09:06.116Z,43.55
2023-01-31T00:11:34.116Z,49.75
2023-01-31T00:14:02.603Z,56.72
2023-01-31T00:16:30.431Z,53.83
2023-01-31T00:18:58.333Z,55.83
2023-01-31T00:21:28.046Z,56.95
2023-01-31T00:23:56.096Z,56.58
2023-01-31T00:26:31.774Z,55.00
2023-01-31T00:29:01.125Z,52.75
2023-01-31T00:31:30.103Z,52.10
2023-01-31T00:33:58.361Z,51.92
2023-01-31T00:36:29.189Z,52.38
2023-01-31T00:38:58.198Z,52.45
2023-01-31T00:41:27.093Z,51.42
2023-01-31T00:43:54.929Z,53.20
2023-01-31T00:46:22.776Z,55.45
2023-01-31T00:48:50.768Z,61.90
2023-01-31T00:51:18.719Z,59.38
2023-01-31T00:53:46.999Z,61.83
2023-01-31T00:56:16.179Z,63.83
2023-01-31T00:58:44.024Z,62.97
2023-01-31T01:01:18.838Z,65.55
2023-01-31T01:03:47.475Z,61.92
2023-01-31T01:06:15.497Z,63.65
2023-01-31T01:08:43.549Z,60.35
2023-01-31T01:11:13.406Z,60.63
2023-01-31T01:13:41.376Z,58.83
2023-01-31T01:16:11.198Z,53.38
2023-01-31T01:18:39.733Z,52.97
2023-01-31T01:21:09.276Z,50.75
2023-01-31T01:23:38.187Z,48.70
2023-01-31T01:26:06.408Z,46.78
2023-01-31T01:28:35.645Z,42.63
2023-01-31T01:31:07.818Z,45.40
2023-01-31T01:33:36.691Z,33.80
2023-01-31T01:36:05.378Z,37.17
2023-01-31T01:38:36.812Z,35.28
2023-01-31T01:41:05.268Z,34.42
2023-01-31T01:44:03.250Z,33.25
2023-01-31T01:46:43.056Z,37.63
2023-01-31T01:49:33.828Z,36.72
2023-01-31T01:52:03.529Z,37.33
2023-01-31T01:54:44.928Z,38.72
2023-01-31T01:57:12.795Z,42.22
2023-01-31T01:59:44.429Z,39.55
2023-01-31T02:02:12.560Z,42.30
2023-01-31T02:04:40.309Z,44.53
2023-01-31T02:07:08.430Z,45.70
2023-01-31T02:10:02.169Z,44.05
2023-01-31T02:12:30.857Z,40.22
2023-01-31T02:14:58.662Z,39.97
2023-01-31T02:17:26.899Z,43.78
2023-01-31T02:20:13.793Z,46.10
2023-01-31T02:22:56.039Z,44.78
2023-01-31T02:26:02.242Z,47.35
2023-01-31T02:28:48.436Z,43.50
2023-01-31T02:31:22.853Z,43.75
2023-01-31T02:34:12.990Z,44.53
2023-01-31T02:36:56.857Z,49.53
2023-01-31T02:40:02.703Z,57.63
2023-01-31T02:42:56.099Z,57.78
2023-01-31T02:45:42.323Z,68.60
2023-01-31T02:48:32.628Z,57.65
2023-01-31T02:51:06.431Z,69.63
2023-01-31T02:54:01.067Z,79.90
2023-01-31T02:56:32.036Z,81.63
2023-01-31T02:59:08.623Z,89.45
2023-01-31T03:01:39.632Z,89.95
2023-01-31T03:04:09.674Z,102.43
2023-01-31T03:06:37.389Z,100.53
2023-01-31T03:09:25.299Z,75.80
2023-01-31T03:11:59.153Z,87.10
2023-01-31T03:15:02.522Z,77.20
2023-01-31T03:17:52.144Z,83.93
2023-01-31T03:20:33.918Z,82.72
2023-01-31T03:23:10.843Z,94.68
2023-01-31T03:25:38.936Z,87.47
2023-01-31T03:28:11.707Z,75.53
2023-01-31T03:31:05.867Z,91.63
2023-01-31T03:33:40.110Z,102.88
2023-01-31T03:36:12.616Z,118.47
2023-01-31T03:38:49.340Z,90.43
2023-01-31T03:41:56.039Z,97.95
2023-01-31T03:44:49.199Z,81.35
2023-01-31T03:47:45.069Z,78.30
2023-01-31T03:50:23.811Z,73.05
2023-01-31T03:53:01.038Z,75.18
2023-01-31T03:55:40.282Z,94.70
2023-01-31T03:58:08.270Z,101.28
2023-01-31T04:00:37.265Z,104.68
2023-01-31T04:03:11.111Z,92.13
2023-01-31T04:05:38.907Z,87.28
2023-01-31T04:08:06.966Z,89.72
2023-01-31T04:10:35.552Z,111.82
2023-01-31T04:13:03.491Z,101.63
2023-01-31T04:15:31.278Z,107.65
2023-01-31T04:17:59.105Z,110.13
2023-01-31T04:20:27.072Z,111.97
2023-01-31T04:22:54.774Z,108.00
2023-01-31T04:25:23.140Z,104.07
2023-01-31T04:27:52.090Z,107.28
2023-01-31T04:30:19.907Z,112.10
2023-01-31T04:32:47.877Z,116.28
2023-01-31T04:35:15.871Z,115.05
2023-01-31T04:37:43.708Z,118.82
2023-01-31T04:40:14.267Z,123.10
2023-01-31T04:42:42.218Z,111.68
2023-01-31T04:45:10.539Z,76.80
2023-01-31T04:47:38.274Z,59.50
2023-01-31T04:50:07.029Z,51.78
2023-01-31T04:52:35.488Z,58.63
2023-01-31T04:55:03.263Z,60.88
2023-01-31T04:57:31.703Z,66.90
2023-01-31T04:59:59.746Z,67.07
2023-01-31T05:02:27.533Z,68.35
2023-01-31T05:04:55.592Z,62.83
2023-01-31T05:07:23.403Z,68.82
2023-01-31T05:09:51.229Z,67.97
2023-01-31T05:12:19.030Z,70.43
2023-01-31T05:14:46.720Z,64.07
2023-01-31T05:17:14.663Z,68.00
2023-01-31T05:19:44.226Z,74.47
2023-01-31T05:22:11.963Z,70.53
2023-01-31T05:24:39.765Z,72.20
2023-01-31T05:27:08.144Z,72.03
2023-01-31T05:29:36.184Z,72.22
2023-01-31T05:32:04.411Z,70.25
2023-01-31T05:34:33.829Z,71.28
2023-01-31T05:37:02.457Z,55.75
2023-01-31T05:39:30.446Z,49.90
2023-01-31T05:41:58.370Z,55.13
2023-01-31T05:44:26.287Z,46.53
2023-01-31T05:46:54.165Z,50.85
2023-01-31T05:49:22.001Z,50.78
2023-01-31T05:51:49.849Z,53.35
2023-01-31T05:54:17.666Z,57.28
2023-01-31T05:56:45.523Z,62.20
2023-01-31T05:59:13.383Z,59.10
2023-01-31T06:01:41.217Z,58.88
2023-01-31T06:04:10.314Z,55.10
2023-01-31T06:06:38.135Z,49.95
2023-01-31T06:09:06.061Z,52.13
2023-01-31T06:11:33.747Z,52.30
2023-01-31T06:14:01.604Z,46.40
2023-01-31T06:16:29.425Z,47.60
2023-01-31T06:18:57.782Z,46.92
2023-01-31T06:21:25.640Z,46.55
2023-01-31T06:23:53.598Z,45.80
2023-01-31T06:26:21.441Z,40.65
2023-01-31T06:28:49.202Z,37.00
2023-01-31T06:31:17.093Z,38.05
2023-01-31T06:33:47.781Z,38.58
2023-01-31T06:36:18.961Z,36.90
2023-01-31T06:38:53.459Z,38.97
2023-01-31T06:41:21.336Z,35.80
2023-01-31T06:43:49.324Z,36.67
2023-01-31T06:46:17.484Z,36.03
2023-01-31T06:48:45.276Z,36.13
2023-01-31T06:51:13.004Z,36.05
2023-01-31T06:53:40.961Z,36.03
2023-01-31T06:56:09.224Z,31.98
2023-01-31T06:58:37.216Z,34.53
2023-01-31T07:01:09.700Z,34.92
2023-01-31T07:03:37.683Z,35.05
2023-01-31T07:06:06.261Z,36.22
2023-01-31T07:08:35.796Z,36.58
2023-01-31T07:11:04.634Z,35.85
2023-01-31T07:13:32.704Z,36.55
2023-01-31T07:16:00.380Z,33.70
2023-01-31T07:18:28.448Z,37.22
2023-01-31T07:20:56.377Z,38.28
2023-01-31T07:23:24.281Z,35.92
2023-01-31T07:25:52.263Z,36.30
2023-01-31T07:28:19.992Z,32.75
2023-01-31T07:30:48.916Z,37.60
2023-01-31T07:33:16.734Z,34.08
2023-01-31T07:35:44.673Z,36.33
2023-01-31T07:38:12.403Z,36.75
2023-01-31T07:40:40.608Z,35.67
2023-01-31T07:43:08.436Z,35.67
2023-01-31T07:45:36.503Z,36.95
2023-01-31T07:48:04.694Z,35.00
2023-01-31T07:50:32.426Z,35.22
2023-01-31T07:53:00.198Z,35.45
2023-01-31T07:55:28.013Z,33.58
2023-01-31T07:57:55.732Z,32.88
2023-01-31T08:00:42.284Z,32.45
2023-01-31T08:03:35.059Z,34.13
2023-01-31T08:06:04.787Z,32.75
2023-01-31T08:08:32.786Z,30.80
2023-01-31T08:11:00.730Z,31.05
2023-01-31T08:13:28.521Z,30.42
2023-01-31T08:15:56.325Z,29.92
2023-01-31T08:18:24.136Z,28.25
2023-01-31T08:20:51.997Z,31.55
2023-01-31T08:23:19.760Z,32.88
2023-01-31T08:25:47.619Z,32.17
2023-01-31T08:28:15.686Z,32.90
2023-01-31T08:30:48.307Z,33.42
2023-01-31T08:33:18.105Z,31.60
2023-01-31T08:35:45.932Z,34.85
2023-01-31T08:38:16.633Z,34.63
2023-01-31T08:40:44.750Z,32.35
2023-01-31T08:43:12.556Z,32.10
2023-01-31T08:45:40.349Z,28.50
2023-01-31T08:48:08.265Z,28.30
2023-01-31T08:50:36.054Z,30.20
2023-01-31T08:53:05.037Z,25.65
2023-01-31T08:55:34.963Z,24.35
2023-01-31T08:58:03.249Z,18.67
2023-01-31T09:00:31.343Z,20.05
2023-01-31T09:03:00.250Z,21.27
2023-01-31T09:05:29.071Z,18.08
2023-01-31T09:07:56.838Z,15.60
2023-01-31T09:10:25.330Z,17.67
2023-01-31T09:12:53.133Z,16.83
2023-01-31T09:15:21.359Z,16.65
2023-01-31T09:17:49.535Z,14.10
2023-01-31T09:20:17.269Z,13.95
2023-01-31T09:22:45.425Z,14.35
2023-01-31T09:25:13.101Z,13.10
2023-01-31T09:27:40.771Z,13.90
2023-01-31T09:30:09.646Z,15.30
2023-01-31T09:32:39.061Z,14.88
2023-01-31T09:35:07.427Z,16.52
2023-01-31T09:37:35.312Z,14.75
2023-01-31T09:40:03.187Z,16.13
2023-01-31T09:42:43.406Z,15.25
2023-01-31T09:45:30.813Z,15.52
2023-01-31T09:47:59.320Z,17.52
2023-01-31T09:51:02.544Z,15.98
2023-01-31T09:53:32.986Z,15.68
2023-01-31T09:56:11.797Z,15.60
2023-01-31T09:58:45.906Z,14.43
2023-01-31T10:01:16.829Z,13.65
2023-01-31T10:04:08.802Z,10.32
2023-01-31T10:06:42.480Z,11.98
2023-01-31T10:09:37.260Z,9.95
2023-01-31T10:12:34.868Z,9.45
2023-01-31T10:15:27.055Z,9.55
2023-01-31T10:17:58.739Z,8.70
2023-01-31T10:20:30.438Z,9.45
2023-01-31T10:23:04.569Z,9.48
2023-01-31T10:25:48.189Z,7.95
2023-01-31T10:28:23.883Z,8.93
2023-01-31T10:31:07.937Z,8.57
2023-01-31T10:33:56.266Z,8.98
2023-01-31T10:36:36.943Z,8.77
2023-01-31T10:39:28.908Z,9.30
2023-01-31T10:42:50.351Z,9.27
2023-01-31T10:45:23.205Z,10.00
2023-01-31T10:48:01.967Z,10.18
2023-01-31T10:50:52.743Z,10.38
2023-01-31T10:53:46.325Z,10.52
2023-01-31T10:56:35.729Z,10.27
2023-01-31T10:59:06.805Z,10.48
2023-01-31T11:01:37.529Z,11.20
2023-01-31T11:04:12.381Z,9.57
2023-01-31T11:06:40.144Z,11.20
2023-01-31T11:09:12.361Z,12.25
2023-01-31T11:11:53.731Z,9.85
2023-01-31T11:14:21.511Z,10.55
2023-01-31T11:16:49.515Z,10.23
2023-01-31T11:19:23.679Z,10.45
2023-01-31T11:21:52.165Z,9.25
2023-01-31T11:24:29.995Z,18.17
2023-01-31T11:27:10.005Z,8.82
2023-01-31T11:29:45.186Z,7.90
2023-01-31T11:32:23.799Z,8.73
2023-01-31T11:35:21.982Z,8.63
2023-01-31T11:38:00.800Z,7.70
2023-01-31T11:40:39.119Z,7.50
2023-01-31T11:43:24.696Z,7.95
2023-01-31T11:45:59.518Z,9.25
2023-01-31T11:48:46.128Z,9.52
2023-01-31T11:51:27.557Z,9.10
2023-01-31T11:53:55.439Z,8.38
2023-01-31T11:56:29.694Z,8.73
2023-01-31T11:58:59.092Z,8.93
2023-01-31T12:01:27.064Z,6.57
2023-01-31T12:04:05.265Z,6.15
2023-01-31T12:06:40.547Z,5.60
2023-01-31T12:09:21.578Z,5.90
2023-01-31T12:12:07.999Z,6.35
2023-01-31T12:14:42.920Z,6.50
2023-01-31T12:17:14.666Z,7.03
2023-01-31T12:20:21.196Z,6.87
2023-01-31T12:22:59.722Z,6.93
2023-01-31T12:25:44.958Z,7.07
2023-01-31T12:28:24.634Z,7.68
2023-01-31T12:30:52.588Z,8.43
2023-01-31T12:33:41.882Z,8.43
2023-01-31T12:36:19.923Z,7.75
2023-01-31T12:39:15.233Z,7.70
2023-01-31T12:42:00.043Z,7.38
2023-01-31T12:44:32.162Z,7.68
2023-01-31T12:47:27.343Z,7.63
2023-01-31T12:50:22.539Z,8.13
2023-01-31T12:52:50.260Z,8.13
2023-01-31T12:55:44.075Z,7.80
2023-01-31T12:59:02.888Z,8.05
2023-01-31T13:01:38.820Z,8.23
2023-01-31T13:04:18.536Z,7.75
2023-01-31T13:06:47.884Z,7.68
2023-01-31T13:09:27.711Z,8.18
2023-01-31T13:12:07.587Z,8.70
2023-01-31T13:15:06.448Z,8.52
2023-01-31T13:17:37.234Z,7.70
2023-01-31T13:20:27.022Z,7.57
2023-01-31T13:22:57.037Z,7.70
2023-01-31T13:25:33.729Z,7.95
2023-01-31T13:28:23.200Z,7.47
2023-01-31T13:31:05.785Z,6.95
2023-01-31T13:33:37.613Z,8.15
2023-01-31T13:36:31.949Z,7.82
2023-01-31T13:39:02.807Z,8.65
2023-01-31T13:41:32.015Z,8.63
2023-01-31T13:44:00.604Z,8.70
2023-01-31T13:46:44.718Z,9.73
2023-01-31T13:49:32.665Z,8.90
2023-01-31T13:52:10.397Z,9.48
2023-01-31T13:54:41.980Z,9.55
2023-01-31T13:57:21.201Z,10.73
2023-01-31T13:59:53.854Z,9.63
2023-01-31T14:04:49.294Z,10.57
2023-01-31T14:07:21.566Z,10.60
2023-01-31T14:09:52.669Z,13.07
2023-01-31T14:12:20.493Z,83.15
2023-01-31T14:14:49.158Z,203.15
2023-01-31T14:17:28.948Z,224.52
2023-01-31T14:20:08.584Z,228.07
2023-01-31T14:22:37.816Z,244.70
2023-01-31T14:25:07.792Z,186.85
2023-01-31T14:27:42.289Z,296.67
2023-01-31T14:30:17.097Z,125.75
2023-01-31T14:32:49.303Z,96.25
2023-01-31T14:35:17.093Z,159.98
2023-01-31T14:38:06.082Z,225.68
2023-01-31T14:40:39.589Z,162.68
2023-01-31T14:43:22.592Z,383.40
2023-01-31T14:45:56.370Z,441.33
2023-01-31T14:48:45.743Z,351.38
2023-01-31T14:51:21.521Z,122.80
2023-01-31T14:54:01.115Z,109.75
2023-01-31T14:56:49.096Z,147.07
2023-01-31T14:59:38.410Z,130.52
2023-01-31T15:02:34.164Z,165.45
2023-01-31T15:05:05.855Z,153.32
2023-01-31T15:07:33.646Z,138.85
2023-01-31T15:10:01.477Z,128.50
2023-01-31T15:13:05.205Z,119.65
2023-01-31T15:15:38.288Z,129.07
2023-01-31T15:18:14.287Z,126.20
2023-01-31T15:20:43.772Z,130.43
2023-01-31T15:23:16.543Z,127.78
2023-01-31T15:25:45.081Z,128.77
2023-01-31T15:28:15.121Z,145.57
2023-01-31T15:30:42.961Z,134.88
2023-01-31T15:33:18.143Z,167.55
2023-01-31T15:35:50.824Z,163.60
2023-01-31T15:41:20.537Z,185.65
2023-01-31T15:43:49.204Z,185.90
2023-01-31T15:46:20.140Z,236.00
2023-01-31T15:48:47.923Z,146.57
2023-01-31T15:51:15.722Z,199.32
2023-01-31T15:53:43.635Z,174.15
2023-01-31T15:56:31.646Z,168.52
2023-01-31T15:58:59.512Z,200.10
2023-01-31T16:01:30.784Z,234.45
2023-01-31T16:03:59.512Z,258.67
2023-01-31T16:06:32.868Z,259.45
2023-01-31T16:09:01.818Z,221.93
2023-01-31T16:11:33.467Z,194.48
2023-01-31T16:14:03.446Z,241.90
2023-01-31T16:16:31.400Z,250.63
2023-01-31T16:19:00.011Z,209.93
2023-01-31T16:21:41.882Z,193.45
2023-01-31T16:24:12.672Z,188.27
2023-01-31T16:26:41.600Z,219.88
2023-01-31T16:29:19.305Z,245.50
2023-01-31T16:31:56.353Z,231.18
2023-01-31T16:34:32.495Z,240.13
2023-01-31T16:37:06.936Z,195.52
2023-01-31T16:39:47.320Z,248.75
2023-01-31T16:42:22.646Z,250.30
2023-01-31T16:44:51.003Z,234.02
2023-01-31T16:47:40.561Z,235.73
2023-01-31T16:50:24.716Z,234.85
2023-01-31T16:53:28.484Z,225.48
2023-01-31T16:56:14.474Z,220.32
2023-01-31T16:58:50.081Z,225.10
2023-01-31T17:01:36.831Z,203.88
2023-01-31T17:04:04.657Z,205.05
2023-01-31T17:06:32.559Z,205.10
2023-01-31T17:09:00.812Z,186.30
2023-01-31T17:11:42.061Z,170.20
2023-01-31T17:14:10.712Z,175.38
2023-01-31T17:16:38.599Z,167.85
2023-01-31T17:19:06.247Z,166.88
2023-01-31T17:21:38.715Z,212.50
2023-01-31T17:26:34.257Z,181.60
2023-01-31T17:29:02.759Z,146.45
2023-01-31T17:31:32.008Z,154.35
2023-01-31T17:33:59.873Z,150.32
2023-01-31T17:36:27.714Z,144.43
2023-01-31T17:38:55.485Z,142.75
2023-01-31T17:41:25.088Z,142.85
2023-01-31T17:43:53.039Z,156.68
2023-01-31T17:46:21.001Z,153.68
2023-01-31T17:48:48.760Z,123.53
2023-01-31T17:51:16.614Z,124.93
2023-01-31T17:53:49.817Z,94.75
2023-01-31T17:56:18.810Z,106.75
2023-01-31T17:58:46.657Z,112.50
2023-01-31T18:01:14.648Z,95.57
2023-01-31T18:03:42.708Z,99.75
2023-01-31T18:06:10.802Z,95.35
2023-01-31T18:08:38.627Z,89.07
2023-01-31T18:11:10.852Z,94.70
2023-01-31T18:13:38.993Z,101.63
2023-01-31T18:16:07.773Z,95.68
2023-01-31T18:18:41.072Z,91.38
2023-01-31T18:21:12.830Z,81.22
2023-01-31T18:23:40.616Z,85.22
2023-01-31T18:26:08.852Z,81.40
2023-01-31T18:28:36.693Z,100.90
2023-01-31T18:31:14.134Z,106.65
2023-01-31T18:33:44.057Z,97.90
2023-01-31T18:36:15.695Z,75.20
2023-01-31T18:38:44.108Z,78.65
2023-01-31T18:41:14.632Z,67.72
2023-01-31T18:43:43.352Z,63.95
2023-01-31T18:46:11.201Z,59.83
2023-01-31T18:48:39.437Z,61.83
2023-01-31T18:51:08.903Z,63.67
2023-01-31T18:53:41.159Z,66.78
2023-01-31T18:56:19.760Z,52.53
2023-01-31T18:58:49.754Z,69.95
2023-01-31T19:01:24.589Z,69.43
2023-01-31T19:03:57.918Z,60.97
2023-01-31T19:06:30.062Z,58.25
2023-01-31T19:08:58.359Z,64.32
2023-01-31T19:11:27.224Z,74.13
2023-01-31T19:13:55.188Z,58.95
2023-01-31T19:16:24.866Z,60.92
2023-01-31T19:18:52.928Z,61.38
2023-01-31T19:21:24.693Z,47.85
2023-01-31T19:23:54.097Z,54.78
2023-01-31T19:26:21.874Z,61.05
2023-01-31T19:28:49.767Z,62.60
2023-01-31T19:31:22.216Z,58.38
2023-01-31T19:36:20.091Z,57.55
2023-01-31T19:38:48.005Z,63.45
2023-01-31T19:41:21.236Z,63.00
2023-01-31T19:43:50.211Z,61.30
2023-01-31T19:46:18.440Z,69.28
2023-01-31T19:48:46.333Z,52.60
2023-01-31T19:51:16.080Z,47.85
2023-01-31T19:53:44.058Z,56.45
2023-01-31T19:56:11.910Z,55.53
2023-01-31T19:58:39.629Z,62.47
2023-01-31T20:01:08.326Z,52.55
2023-01-31T20:03:36.370Z,46.03
2023-01-31T20:06:04.801Z,42.55
2023-01-31T20:08:32.713Z,45.17
2023-01-31T20:11:00.613Z,44.28
2023-01-31T20:13:28.445Z,45.00
2023-01-31T20:15:59.628Z,41.30
2023-01-31T20:18:27.540Z,39.65
2023-01-31T20:20:55.429Z,35.67
2023-01-31T20:23:23.311Z,40.00
2023-01-31T20:25:51.597Z,40.35
2023-01-31T20:28:19.832Z,39.13
2023-01-31T20:30:47.769Z,86.18
2023-01-31T20:33:15.635Z,89.93
2023-01-31T20:35:43.544Z,82.40
2023-01-31T20:38:11.472Z,84.53
2023-01-31T20:40:39.417Z,99.82
2023-01-31T20:43:07.317Z,100.50
2023-01-31T20:45:35.821Z,91.70
2023-01-31T20:48:03.656Z,73.50
2023-01-31T20:50:31.530Z,79.32
2023-01-31T20:52:59.395Z,76.50
2023-01-31T20:55:27.764Z,39.00
2023-01-31T20:57:55.379Z,39.80
2023-01-31T21:00:23.583Z,27.85
2023-01-31T21:02:51.692Z,33.97
2023-01-31T21:05:19.709Z,55.15
2023-01-31T21:07:47.459Z,46.40
2023-01-31T21:10:15.359Z,62.30
2023-01-31T21:12:44.759Z,58.45
2023-01-31T21:15:12.576Z,52.38
2023-01-31T21:17:40.837Z,52.47
2023-01-31T21:20:11.147Z,66.03
2023-01-31T21:22:39.021Z,61.75
2023-01-31T21:25:07.119Z,64.10
2023-01-31T21:27:34.946Z,64.65
2023-01-31T21:30:02.806Z,57.80
2023-01-31T21:32:30.592Z,55.80
2023-01-31T21:34:58.384Z,51.92
2023-01-31T21:37:26.164Z,51.10
2023-01-31T21:39:53.908Z,60.35
2023-01-31T21:42:21.823Z,59.47
2023-01-31T21:44:49.690Z,49.90
2023-01-31T21:47:17.500Z,52.45
2023-01-31T21:49:45.201Z,49.63
2023-01-31T21:52:13.047Z,46.17
2023-01-31T21:54:40.788Z,45.08
2023-01-31T21:57:08.476Z,43.35
2023-01-31T21:59:36.849Z,41.35
2023-01-31T22:02:04.545Z,40.88
2023-01-31T22:04:32.436Z,44.22
2023-01-31T22:07:00.357Z,43.20
2023-01-31T22:09:28.131Z,60.20
2023-01-31T22:11:55.862Z,57.63
2023-01-31T22:14:23.765Z,55.20
2023-01-31T22:16:53.244Z,57.22
2023-01-31T22:19:21.146Z,40.05
2023-01-31T22:21:48.854Z,57.00
2023-01-31T22:24:17.776Z,53.95
2023-01-31T22:26:45.650Z,59.80
2023-01-31T22:29:14.644Z,56.58
2023-01-31T22:31:43.475Z,54.97
2023-01-31T22:34:14.169Z,53.85
2023-01-31T22:36:43.008Z,49.58
2023-01-31T22:39:13.068Z,45.60
2023-01-31T22:41:41.016Z,45.72
2023-01-31T22:44:08.807Z,51.60
2023-01-31T22:46:36.552Z,39.97
2023-01-31T22:49:04.319Z,44.92
2023-01-31T22:51:32.158Z,44.15
2023-01-31T22:53:59.932Z,45.03
2023-01-31T22:56:29.962Z,44.08
2023-01-31T22:58:59.048Z,43.55
2023-01-31T23:01:28.240Z,50.50
2023-01-31T23:03:59.904Z,46.47
2023-01-31T23:06:28.006Z,43.40
2023-01-31T23:08:56.255Z,51.47
2023-01-31T23:11:24.785Z,59.00
2023-01-31T23:13:52.833Z,43.53
2023-01-31T23:16:22.269Z,58.30
2023-01-31T23:18:50.089Z,56.38
2023-01-31T23:21:18.930Z,54.03
2023-01-31T23:23:46.754Z,58.80
2023-01-31T23:26:14.686Z,59.28
2023-01-31T23:28:42.605Z,52.00
2023-01-31T23:31:10.433Z,50.70
2023-01-31T23:33:38.303Z,62.72
2023-01-31T23:36:06.559Z,60.38
2023-01-31T23:38:34.422Z,56.55
2023-01-31T23:41:02.154Z,61.00
2023-01-31T23:43:29.921Z,60.80
2023-01-31T23:45:57.756Z,59.28
2023-01-31T23:48:25.790Z,52.60
2023-01-31T23:50:53.620Z,45.17
2023-01-31T23:53:21.384Z,49.00
2023-01-31T23:55:49.331Z,62.78
2023-01-31T23:58:16.922Z,51.00
